createdAt,value
2022-10-09T00:01:44.066Z,99.99
2022-10-09T00:07:02.955Z,99.99
2022-10-09T00:12:21.300Z,99.99
2022-10-09T00:17:40.735Z,99.99
2022-10-09T00:23:00.057Z,99.99
2022-10-09T00:28:19.185Z,99.99
2022-10-09T00:34:53.315Z,99.99
2022-10-09T00:38:59.267Z,99.99
2022-10-09T00:44:18.786Z,99.99
2022-10-09T00:49:37.655Z,99.99
2022-10-09T00:54:57.155Z,99.99
2022-10-09T01:00:16.421Z,99.99
2022-10-09T01:05:35.366Z,99.99
2022-10-09T01:10:54.772Z,99.99
2022-10-09T01:16:13.917Z,99.99
2022-10-09T01:21:33.655Z,99.99
2022-10-09T01:26:52.702Z,99.99
2022-10-09T01:35:25.792Z,99.99
2022-10-09T01:37:31.137Z,99.99
2022-10-09T01:48:09.526Z,99.99
2022-10-09T01:53:28.543Z,99.99
2022-10-09T01:58:46.499Z,99.99
2022-10-09T02:04:05.562Z,99.99
2022-10-09T02:09:24.652Z,99.99
2022-10-09T02:14:44.274Z,99.99
2022-10-09T02:20:03.246Z,99.99
2022-10-09T02:26:37.405Z,99.99
2022-10-09T02:30:53.955Z,99.99
2022-10-09T02:36:01.432Z,99.99
2022-10-09T02:44:34.492Z,99.99
2022-10-09T02:50:22.084Z,99.99
2022-10-09T02:58:55.144Z,99.99
2022-10-09T03:07:28.200Z,99.99
2022-10-09T03:16:59.032Z,99.99
2022-10-09T03:22:18.179Z,99.99
2022-10-09T03:27:37.731Z,99.99
2022-10-09T03:32:57.156Z,99.99
2022-10-09T03:38:16.769Z,99.99
2022-10-09T03:43:36.311Z,99.99
2022-10-09T03:48:54.813Z,99.99
2022-10-09T03:54:14.374Z,99.99
2022-10-09T03:59:33.528Z,99.99
2022-10-09T04:04:52.329Z,99.99
2022-10-09T04:11:26.518Z,99.99
2022-10-09T04:15:43.020Z,99.99
2022-10-09T04:24:16.156Z,99.99
2022-10-09T04:32:49.439Z,99.99
2022-10-09T04:36:49.733Z,99.99
2022-10-09T04:42:08.868Z,99.99
2022-10-09T04:47:28.102Z,99.99
2022-10-09T04:52:47.961Z,99.99
2022-10-09T04:58:06.806Z,99.99
2022-10-09T05:03:26.414Z,99.99
2022-10-09T05:11:59.492Z,99.99
2022-10-09T05:14:04.810Z,99.99
2022-10-09T05:24:44.124Z,99.99
2022-10-09T05:30:02.913Z,99.99
2022-10-09T05:38:36.010Z,99.99
2022-10-09T05:40:40.521Z,99.99
2022-10-09T05:47:39.077Z,99.99
2022-10-09T05:56:39.280Z,99.99
2022-10-09T06:07:17.505Z,99.99
2022-10-09T06:12:37.211Z,99.99
2022-10-09T06:17:56.628Z,99.99
2022-10-09T06:23:15.679Z,99.99
2022-10-09T06:31:48.729Z,99.99
2022-10-09T06:36:09.945Z,99.99
2022-10-09T06:39:14.045Z,99.99
2022-10-09T06:44:33.239Z,99.99
2022-10-09T06:53:06.297Z,99.99
2022-10-09T07:01:39.429Z,99.99
2022-10-09T07:05:50.803Z,99.99
2022-10-09T07:11:09.942Z,99.99
2022-10-09T07:16:28.914Z,99.99
2022-10-09T07:25:01.878Z,99.99
2022-10-09T07:27:07.727Z,99.99
2022-10-09T07:32:26.829Z,99.99
2022-10-09T07:37:45.622Z,99.99
2022-10-09T07:46:18.837Z,99.99
2022-10-09T07:48:24.000Z,99.99
2022-10-09T07:59:01.881Z,99.99
2022-10-09T08:04:19.701Z,99.99
2022-10-09T08:11:18.361Z,99.99
2022-10-09T08:15:34.858Z,99.99
2022-10-09T08:30:57.700Z,99.99
2022-10-09T08:36:16.580Z,99.99
2022-10-09T08:41:35.947Z,99.99
2022-10-09T08:46:55.257Z,99.99
2022-10-09T08:55:28.298Z,99.99
2022-10-09T08:59:44.856Z,99.99
2022-10-09T09:02:53.471Z,99.99
2022-10-09T09:13:30.656Z,94.04
2022-10-09T09:18:50.133Z,87.79
2022-10-09T09:24:09.394Z,81.92
2022-10-09T09:29:28.678Z,81.78
2022-10-09T09:34:48.165Z,77.16
2022-10-09T09:40:37.069Z,75.39
2022-10-09T09:47:04.398Z,73.69
2022-10-09T09:56:04.786Z,72.44
2022-10-09T10:04:42.522Z,68.74
2022-10-09T10:12:02.792Z,62.61
2022-10-09T10:20:35.841Z,59.84
2022-10-09T10:27:59.927Z,58.51
2022-10-09T10:33:19.093Z,59.71
2022-10-09T10:38:38.754Z,59.54
2022-10-09T10:43:58.255Z,58.3
2022-10-09T10:49:17.111Z,59.31
2022-10-09T10:54:36.044Z,59.43
2022-10-09T10:59:55.709Z,59
2022-10-09T11:05:15.055Z,55.02
2022-10-09T11:10:34.338Z,54.35
2022-10-09T11:19:07.372Z,54.78
2022-10-09T11:21:12.480Z,55.45
2022-10-09T11:26:31.750Z,55.12
2022-10-09T11:31:51.302Z,54.52
2022-10-09T11:37:10.760Z,54.87
2022-10-09T11:42:30.039Z,53.66
2022-10-09T11:47:49.402Z,50.57
2022-10-09T11:53:08.116Z,50.65
2022-10-09T11:58:27.587Z,50.58
2022-10-09T12:03:46.847Z,50.81
2022-10-09T12:09:05.817Z,50.2
2022-10-09T12:14:24.752Z,50.71
2022-10-09T12:19:43.751Z,49.12
2022-10-09T12:28:16.858Z,49.14
2022-10-09T12:35:40.229Z,48.94
2022-10-09T12:40:59.288Z,47.66
2022-10-09T12:46:18.434Z,47.69
2022-10-09T12:51:37.258Z,48.74
2022-10-09T12:56:54.833Z,47.42
2022-10-09T13:02:13.857Z,47.97
2022-10-09T13:07:33.068Z,48.34
2022-10-09T13:12:52.264Z,47.98
2022-10-09T13:18:11.332Z,48.3
2022-10-09T13:23:30.634Z,48.75
2022-10-09T13:28:49.585Z,47.89
2022-10-09T13:34:08.993Z,46.17
2022-10-09T13:40:43.158Z,47.76
2022-10-09T13:44:59.660Z,46.36
2022-10-09T13:50:08.502Z,46.53
2022-10-09T13:55:28.137Z,46.24
2022-10-09T14:00:46.854Z,44.58
2022-10-09T14:06:05.785Z,44.43
2022-10-09T14:11:24.695Z,44.56
2022-10-09T14:16:44.386Z,44.4
2022-10-09T14:22:03.637Z,43.84
2022-10-09T14:27:22.696Z,44.78
2022-10-09T14:32:41.412Z,44.22
2022-10-09T14:38:00.624Z,44.07
2022-10-09T14:43:19.553Z,45.16
2022-10-09T14:48:38.698Z,44.59
2022-10-09T14:53:58.385Z,44.72
2022-10-09T14:59:17.172Z,46.32
2022-10-09T15:04:47.885Z,47.11
2022-10-09T15:09:54.771Z,45.74
2022-10-09T15:15:13.984Z,46.76
2022-10-09T15:20:33.174Z,46.91
2022-10-09T15:25:52.676Z,47.07
2022-10-09T15:31:12.287Z,47.54
2022-10-09T15:36:31.091Z,47.82
2022-10-09T15:41:49.524Z,48.13
2022-10-09T15:47:08.847Z,46.86
2022-10-09T15:52:28.406Z,47.05
2022-10-09T15:57:47.814Z,47.37
2022-10-09T16:04:21.987Z,48.43
2022-10-09T16:08:38.546Z,48.68
2022-10-09T16:13:45.806Z,49.75
2022-10-09T16:19:04.839Z,50.59
2022-10-09T16:24:23.786Z,52.54
2022-10-09T16:29:43.236Z,54.27
2022-10-09T16:35:02.301Z,55.44
2022-10-09T16:40:28.669Z,56.09
2022-10-09T16:45:40.489Z,56.03
2022-10-09T16:50:59.470Z,56.14
2022-10-09T16:56:18.757Z,56.52
2022-10-09T17:01:38.267Z,57.26
2022-10-09T17:06:57.477Z,57.62
2022-10-09T17:12:16.549Z,59.87
2022-10-09T17:17:35.825Z,61.68
2022-10-09T17:22:54.857Z,63.2
2022-10-09T17:28:14.590Z,63.52
2022-10-09T17:33:34.195Z,64.76
2022-10-09T17:38:53.205Z,65.83
2022-10-09T17:44:12.195Z,66.26
2022-10-09T17:49:31.565Z,67.91
2022-10-09T17:54:51.101Z,69.32
2022-10-09T18:00:10.462Z,70.46
2022-10-09T18:05:29.506Z,71.8
2022-10-09T18:10:48.470Z,72.44
2022-10-09T18:16:07.997Z,72.91
2022-10-09T18:21:26.970Z,73.42
2022-10-09T18:28:01.127Z,73.58
2022-10-09T18:32:07.354Z,73.48
2022-10-09T18:37:26.555Z,73.18
2022-10-09T18:42:45.778Z,73
2022-10-09T18:48:05.285Z,73.04
2022-10-09T18:53:24.098Z,73.06
2022-10-09T18:58:43.469Z,73.35
2022-10-09T19:04:02.565Z,74.22
2022-10-09T19:09:21.952Z,74.54
2022-10-09T19:14:41.215Z,74.91
2022-10-09T19:20:00.797Z,75.21
2022-10-09T19:25:20.060Z,75.36
2022-10-09T19:30:38.870Z,75.99
2022-10-09T19:35:58.068Z,76.3
2022-10-09T19:41:17.050Z,76.49
2022-10-09T19:46:36.109Z,77.43
2022-10-09T19:51:55.196Z,78.8
2022-10-09T19:57:14.181Z,80.07
2022-10-09T20:02:31.817Z,80.44
2022-10-09T20:09:30.368Z,80.37
2022-10-09T20:13:11.598Z,81.15
2022-10-09T20:18:30.363Z,81.58
2022-10-09T20:23:49.356Z,81.75
2022-10-09T20:29:08.260Z,83.55
2022-10-09T20:34:27.411Z,84.7
2022-10-09T20:39:46.843Z,84.76
2022-10-09T20:45:06.487Z,86.3
2022-10-09T20:53:39.539Z,85.76
2022-10-09T20:57:56.084Z,83.12
2022-10-09T21:01:04.012Z,86.37
2022-10-09T21:06:23.208Z,86.68
2022-10-09T21:11:42.862Z,86.95
2022-10-09T21:17:02.562Z,86.56
2022-10-09T21:22:21.784Z,87.04
2022-10-09T21:27:40.829Z,88.33
2022-10-09T21:33:00.554Z,87.98
2022-10-09T21:33:28.551Z,86.54
2022-10-09T21:38:46.797Z,86.98
2022-10-09T21:44:06.417Z,86.31
2022-10-09T21:49:25.903Z,86.98
2022-10-09T21:54:45.230Z,86.66
2022-10-09T22:00:04.604Z,88.15
2022-10-09T22:05:23.473Z,88.54
2022-10-09T22:10:42.930Z,87.9
2022-10-09T22:16:02.244Z,88.81
2022-10-09T22:21:21.934Z,88.12
2022-10-09T22:26:41.338Z,88.07
2022-10-09T22:32:00.761Z,89.41
2022-10-09T22:37:19.970Z,88.47
2022-10-09T22:42:39.682Z,88.23
2022-10-09T22:47:59.454Z,88.31
2022-10-09T22:53:18.254Z,88.63
2022-10-09T22:58:37.374Z,88.19
2022-10-09T23:03:56.582Z,88.58
2022-10-09T23:09:15.906Z,88.76
2022-10-09T23:14:35.338Z,88.78
2022-10-09T23:19:54.947Z,89.44
2022-10-09T23:25:13.840Z,89.67
2022-10-09T23:30:33.269Z,90.1
2022-10-09T23:35:52.549Z,90.39
2022-10-09T23:41:11.832Z,91.28
2022-10-09T23:46:30.980Z,91.92
2022-10-09T23:51:50.513Z,92.75
2022-10-09T23:57:10.014Z,93.29
